Time;durP1;ratioP1;P1;durP2;ratioP2;P2;SDS_P1;SDS_P2;PMS_P1;PMS_P2;Temp;Humidity;BMP_temperature;BMP_pressure;BME280_temperature;BME280_humidity;BME280_pressure;Samples;Min_cycle;Max_cycle;Signal;HPM_P1;HPM_P2
2022/06/30 00:01:00;;;;;;;3.67;2.63;;;;;;;;;;5032542;28;20030;-60
2022/06/30 00:03:26;;;;;;;2.83;2.45;;;;;;;;;;5035234;28;20029;-60
2022/06/30 00:05:52;;;;;;;4.45;2.45;;;;;;;;;;5033085;28;20069;-60
2022/06/30 00:08:18;;;;;;;5.18;2.45;;;;;;;;;;5033026;28;20053;-59
2022/06/30 00:10:44;;;;;;;5.18;2.42;;;;;;;;;;5045949;28;20022;-60
2022/06/30 00:13:11;;;;;;;5.13;2.60;;;;;;;;;;5032544;28;20021;-59
2022/06/30 00:15:37;;;;;;;4.20;2.60;;;;;;;;;;5032856;28;20499;-59
2022/06/30 00:18:04;;;;;;;2.95;2.10;;;;;;;;;;5032642;28;20022;-61
2022/06/30 00:20:30;;;;;;;6.32;2.30;;;;;;;;;;5031761;28;20017;-59
2022/06/30 00:22:56;;;;;;;2.88;2.20;;;;;;;;;;5032522;28;20056;-60
2022/06/30 00:25:22;;;;;;;2.63;2.35;;;;;;;;;;5032688;28;20036;-60
2022/06/30 00:27:48;;;;;;;3.50;2.42;;;;;;;;;;5032071;28;20569;-60
2022/06/30 00:30:14;;;;;;;3.47;2.25;;;;;;;;;;5033539;28;20025;-59
2022/06/30 00:32:40;;;;;;;5.35;2.42;;;;;;;;;;5033487;28;20144;-60
2022/06/30 00:35:06;;;;;;;2.78;2.22;;;;;;;;;;5031903;28;20133;-60
2022/06/30 00:37:32;;;;;;;7.05;2.38;;;;;;;;;;5032256;28;20238;-59
2022/06/30 00:39:58;;;;;;;4.20;2.63;;;;;;;;;;5032098;28;20052;-60
2022/06/30 00:42:24;;;;;;;3.80;2.45;;;;;;;;;;5032246;28;20400;-59
2022/06/30 00:44:50;;;;;;;4.60;2.30;;;;;;;;;;5032178;28;20025;-59
2022/06/30 00:47:16;;;;;;;3.58;2.50;;;;;;;;;;5032103;28;20021;-59
2022/06/30 00:49:42;;;;;;;4.03;2.83;;;;;;;;;;5031449;28;20055;-59
2022/06/30 00:52:10;;;;;;;4.70;2.83;;;;;;;;;;5031619;28;20040;-59
2022/06/30 00:54:37;;;;;;;5.25;2.42;;;;;;;;;;5031942;28;20116;-59
2022/06/30 00:57:04;;;;;;;4.00;2.40;;;;;;;;;;5032034;28;20109;-57
2022/06/30 00:59:33;;;;;;;4.82;2.60;;;;;;;;;;5039413;28;20028;-59
2022/06/30 01:02:00;;;;;;;4.03;2.30;;;;;;;;;;5036451;28;20036;-59
2022/06/30 01:04:26;;;;;;;3.90;2.13;;;;;;;;;;5031620;28;20695;-59
2022/06/30 01:06:52;;;;;;;5.20;2.90;;;;;;;;;;5031623;28;20116;-59
2022/06/30 01:12:48;;;;;;;4.47;2.58;;;;;;;;;;5030966;28;20091;-60
2022/06/30 01:14:50;;;;;;;3.50;2.65;;;;;;;;;;5017378;28;20048;-59
2022/06/30 01:17:16;;;;;;;4.50;2.17;;;;;;;;;;5031699;28;20104;-59
2022/06/30 01:19:51;;;;;;;3.35;2.03;;;;;;;;;;5030869;28;20141;-57
2022/06/30 01:22:17;;;;;;;4.35;2.28;;;;;;;;;;5031696;28;20109;-57
2022/06/30 01:24:43;;;;;;;4.72;2.47;;;;;;;;;;5036966;28;20025;-58
2022/06/30 01:27:09;;;;;;;5.35;2.35;;;;;;;;;;5034610;28;20061;-58
2022/06/30 01:29:35;;;;;;;4.25;2.28;;;;;;;;;;5022364;28;20480;-59
2022/06/30 01:32:01;;;;;;;3.60;2.58;;;;;;;;;;5031102;28;20029;-59
2022/06/30 01:34:27;;;;;;;3.30;2.60;;;;;;;;;;5030764;28;20029;-60
2022/06/30 01:36:53;;;;;;;4.00;2.50;;;;;;;;;;5031387;28;20017;-59
2022/06/30 01:39:19;;;;;;;4.57;3.13;;;;;;;;;;5036029;28;20025;-59
2022/06/30 01:41:45;;;;;;;3.33;2.10;;;;;;;;;;5038837;28;20029;-58
2022/06/30 01:44:11;;;;;;;6.28;2.42;;;;;;;;;;5031119;28;20032;-58
2022/06/30 01:46:37;;;;;;;4.25;2.17;;;;;;;;;;5013760;28;20033;-58
2022/06/30 01:49:03;;;;;;;2.83;2.40;;;;;;;;;;5011898;28;20052;-58
2022/06/30 01:51:29;;;;;;;5.30;2.58;;;;;;;;;;5030720;28;20480;-58
2022/06/30 01:53:56;;;;;;;5.57;2.38;;;;;;;;;;5030806;28;20388;-59
2022/06/30 01:56:21;;;;;;;3.92;2.28;;;;;;;;;;5030921;28;20423;-57
2022/06/30 01:58:47;;;;;;;3.90;2.42;;;;;;;;;;5030637;28;20037;-58
2022/06/30 02:01:13;;;;;;;5.25;2.67;;;;;;;;;;5029860;28;20025;-59
2022/06/30 02:03:39;;;;;;;4.97;2.58;;;;;;;;;;5032633;28;20491;-59
2022/06/30 02:06:06;;;;;;;4.47;2.22;;;;;;;;;;5030985;28;20720;-58
2022/06/30 02:08:31;;;;;;;5.15;2.58;;;;;;;;;;5030130;28;20104;-58
2022/06/30 02:10:57;;;;;;;5.32;2.65;;;;;;;;;;5030312;28;20393;-58
2022/06/30 02:13:23;;;;;;;2.70;2.42;;;;;;;;;;5030728;28;20026;-60
2022/06/30 02:15:49;;;;;;;3.92;2.67;;;;;;;;;;5030619;28;20392;-59
2022/06/30 02:18:16;;;;;;;4.88;2.70;;;;;;;;;;5030690;28;20034;-57
2022/06/30 02:20:42;;;;;;;2.83;2.38;;;;;;;;;;5030260;28;20030;-57
2022/06/30 02:23:07;;;;;;;3.45;2.47;;;;;;;;;;5032754;28;20028;-58
2022/06/30 02:25:34;;;;;;;4.35;2.50;;;;;;;;;;5034264;28;20029;-59
2022/06/30 02:28:02;;;;;;;4.28;2.83;;;;;;;;;;5032826;28;20029;-58
2022/06/30 02:30:28;;;;;;;5.05;2.78;;;;;;;;;;5024448;28;20087;-58
2022/06/30 02:32:54;;;;;;;4.07;2.63;;;;;;;;;;5034697;28;20030;-58
2022/06/30 02:35:20;;;;;;;3.67;2.63;;;;;;;;;;5033522;28;20448;-59
2022/06/30 02:37:46;;;;;;;5.07;2.55;;;;;;;;;;5034511;28;20113;-58
2022/06/30 02:40:12;;;;;;;3.97;2.65;;;;;;;;;;5033642;28;20041;-59
2022/06/30 02:42:38;;;;;;;4.75;2.45;;;;;;;;;;5034499;28;20028;-59
2022/06/30 02:45:04;;;;;;;6.25;2.50;;;;;;;;;;5034355;28;20025;-60
2022/06/30 02:47:31;;;;;;;7.72;3.20;;;;;;;;;;5034417;28;20033;-58
2022/06/30 02:49:57;;;;;;;6.22;2.83;;;;;;;;;;5033443;28;20037;-58
2022/06/30 02:52:23;;;;;;;7.15;2.70;;;;;;;;;;5033901;28;20062;-58
2022/06/30 02:54:49;;;;;;;4.20;2.70;;;;;;;;;;5041853;28;20044;-59
2022/06/30 02:57:15;;;;;;;6.50;2.50;;;;;;;;;;5039977;28;20108;-59
2022/06/30 02:59:41;;;;;;;6.70;3.00;;;;;;;;;;5040716;28;20017;-58
2022/06/30 03:02:07;;;;;;;3.42;2.88;;;;;;;;;;5040334;28;20083;-58
2022/06/30 03:04:33;;;;;;;5.40;3.08;;;;;;;;;;5033727;28;20033;-58
2022/06/30 03:07:00;;;;;;;5.57;3.38;;;;;;;;;;5033777;28;20025;-58
2022/06/30 03:09:26;;;;;;;4.50;2.70;;;;;;;;;;5034075;28;20034;-58
2022/06/30 03:11:52;;;;;;;7.90;2.45;;;;;;;;;;5033565;28;20025;-58
2022/06/30 03:14:18;;;;;;;4.47;2.90;;;;;;;;;;5033626;28;20041;-57
2022/06/30 03:16:44;;;;;;;4.35;2.58;;;;;;;;;;5033679;28;20037;-59
2022/06/30 03:19:10;;;;;;;4.78;3.10;;;;;;;;;;5033521;28;20022;-58
2022/06/30 03:21:36;;;;;;;5.03;3.00;;;;;;;;;;5032926;28;20491;-58
2022/06/30 03:24:02;;;;;;;5.93;2.60;;;;;;;;;;5033810;28;20104;-57
2022/06/30 03:26:28;;;;;;;6.03;2.80;;;;;;;;;;5033217;28;20056;-58
2022/06/30 03:28:54;;;;;;;5.95;2.83;;;;;;;;;;5024327;28;20022;-59
2022/06/30 03:31:20;;;;;;;6.18;2.80;;;;;;;;;;5030368;28;20464;-58
2022/06/30 03:33:46;;;;;;;4.85;2.42;;;;;;;;;;5031970;28;20072;-59
2022/06/30 03:36:12;;;;;;;5.47;2.40;;;;;;;;;;5032656;28;20080;-58
2022/06/30 03:38:38;;;;;;;6.35;3.10;;;;;;;;;;5033616;28;20022;-58
2022/06/30 03:41:04;;;;;;;5.03;2.90;;;;;;;;;;5032686;28;20036;-59
2022/06/30 03:43:30;;;;;;;6.68;2.70;;;;;;;;;;5033424;28;20025;-58
2022/06/30 03:45:56;;;;;;;3.92;2.22;;;;;;;;;;5033185;28;20105;-57
2022/06/30 03:48:22;;;;;;;3.78;2.58;;;;;;;;;;5033351;28;20029;-59
2022/06/30 03:50:48;;;;;;;6.20;3.17;;;;;;;;;;5032127;28;20112;-58
2022/06/30 03:53:14;;;;;;;4.88;2.08;;;;;;;;;;5033233;28;20033;-57
2022/06/30 03:55:40;;;;;;;6.40;2.70;;;;;;;;;;5033034;28;20022;-58
2022/06/30 03:58:07;;;;;;;5.22;2.65;;;;;;;;;;5033286;28;20026;-58
2022/06/30 04:00:33;;;;;;;5.43;2.58;;;;;;;;;;5032615;28;20082;-59
2022/06/30 04:02:59;;;;;;;4.03;2.50;;;;;;;;;;5033108;28;20057;-58
2022/06/30 04:05:25;;;;;;;4.53;2.53;;;;;;;;;;5037171;28;20463;-59
2022/06/30 04:07:51;;;;;;;5.10;2.42;;;;;;;;;;5032798;28;20029;-58
2022/06/30 04:10:18;;;;;;;3.88;2.67;;;;;;;;;;5032411;28;20037;-58
2022/06/30 04:12:44;;;;;;;2.88;2.08;;;;;;;;;;5033009;28;20477;-59
2022/06/30 04:15:10;;;;;;;4.63;2.92;;;;;;;;;;5032515;28;20029;-58
2022/06/30 04:17:36;;;;;;;4.55;2.28;;;;;;;;;;5032793;28;20025;-59
2022/06/30 04:20:15;;;;;;;5.78;2.40;;;;;;;;;;5011012;28;20117;-58
2022/06/30 04:22:41;;;;;;;4.78;2.78;;;;;;;;;;5031067;28;20029;-58
2022/06/30 04:25:07;;;;;;;4.70;2.65;;;;;;;;;;5043541;28;20036;-58
2022/06/30 04:27:33;;;;;;;4.88;2.60;;;;;;;;;;5032258;28;20048;-58
2022/06/30 04:29:59;;;;;;;4.43;2.42;;;;;;;;;;5022121;28;20029;-59
2022/06/30 04:32:37;;;;;;;6.68;2.60;;;;;;;;;;5032160;28;20030;-59
2022/06/30 04:35:03;;;;;;;4.53;2.78;;;;;;;;;;5032115;28;20536;-59
2022/06/30 04:37:29;;;;;;;5.38;2.42;;;;;;;;;;5031936;28;20035;-60
2022/06/30 04:42:40;;;;;;;3.42;2.33;;;;;;;;;;5038361;28;20082;-58
2022/06/30 04:45:06;;;;;;;4.20;2.35;;;;;;;;;;5039140;28;20565;-59
2022/06/30 04:47:34;;;;;;;6.85;2.83;;;;;;;;;;5032113;28;20029;-60
2022/06/30 04:50:00;;;;;;;4.88;2.65;;;;;;;;;;5031688;28;20033;-59
2022/06/30 04:52:26;;;;;;;4.22;2.33;;;;;;;;;;5031296;28;20547;-58
2022/06/30 04:54:52;;;;;;;5.10;2.30;;;;;;;;;;5032102;28;20029;-60
2022/06/30 04:57:18;;;;;;;5.63;2.83;;;;;;;;;;5031921;28;20028;-59
2022/06/30 04:59:44;;;;;;;4.63;2.83;;;;;;;;;;5031439;28;20036;-59
2022/06/30 05:02:10;;;;;;;5.57;2.83;;;;;;;;;;5028131;28;20558;-59
2022/06/30 05:04:36;;;;;;;5.95;2.60;;;;;;;;;;5030535;28;20104;-60
2022/06/30 05:07:02;;;;;;;4.10;2.72;;;;;;;;;;5025032;28;20037;-59
2022/06/30 05:09:28;;;;;;;5.25;2.50;;;;;;;;;;5024901;28;20522;-58
2022/06/30 05:11:54;;;;;;;5.72;3.67;;;;;;;;;;5030450;28;20026;-58
2022/06/30 05:14:20;;;;;;;4.85;2.72;;;;;;;;;;5031430;28;20519;-58
2022/06/30 05:16:46;;;;;;;9.70;3.03;;;;;;;;;;5023735;28;20773;-59
2022/06/30 05:19:12;;;;;;;6.00;2.67;;;;;;;;;;5031363;28;20025;-59
2022/06/30 05:21:38;;;;;;;5.25;2.70;;;;;;;;;;5030646;28;20021;-59
2022/06/30 05:26:49;;;;;;;5.50;2.50;;;;;;;;;;5030858;28;20075;-57
2022/06/30 05:29:15;;;;;;;5.88;2.42;;;;;;;;;;5022360;28;20030;-59
2022/06/30 05:31:41;;;;;;;8.07;2.80;;;;;;;;;;5030802;28;20041;-57
2022/06/30 05:34:07;;;;;;;7.50;2.58;;;;;;;;;;5030069;28;20040;-57
2022/06/30 05:36:33;;;;;;;3.67;2.70;;;;;;;;;;5028586;28;20449;-57
2022/06/30 05:38:59;;;;;;;5.80;3.00;;;;;;;;;;5024133;28;20469;-58
2022/06/30 05:41:25;;;;;;;4.47;3.00;;;;;;;;;;5027516;28;20021;-58
2022/06/30 05:43:52;;;;;;;5.18;2.70;;;;;;;;;;5030037;28;20029;-59
2022/06/30 05:46:18;;;;;;;5.63;2.42;;;;;;;;;;5031376;28;20051;-59
2022/06/30 05:48:44;;;;;;;4.68;3.08;;;;;;;;;;5031188;28;20039;-59
2022/06/30 05:51:10;;;;;;;5.35;2.80;;;;;;;;;;5029127;28;20101;-59
2022/06/30 05:53:37;;;;;;;4.53;2.60;;;;;;;;;;5029913;28;20441;-58
2022/06/30 05:56:03;;;;;;;5.35;3.17;;;;;;;;;;5029585;28;20033;-59
2022/06/30 05:58:29;;;;;;;5.95;2.70;;;;;;;;;;5024052;28;20490;-59
2022/06/30 06:00:55;;;;;;;6.22;2.58;;;;;;;;;;5021158;28;20048;-58
2022/06/30 06:03:21;;;;;;;5.93;2.50;;;;;;;;;;5028477;28;20026;-58
2022/06/30 06:05:47;;;;;;;6.05;2.92;;;;;;;;;;5029224;28;20041;-59
2022/06/30 06:08:13;;;;;;;5.03;2.58;;;;;;;;;;5028730;28;20108;-57
2022/06/30 06:10:39;;;;;;;5.18;2.90;;;;;;;;;;5027121;28;20037;-57
2022/06/30 06:13:06;;;;;;;10.02;2.83;;;;;;;;;;5028096;28;20029;-58
2022/06/30 06:15:32;;;;;;;8.32;2.55;;;;;;;;;;5030647;28;20034;-59
2022/06/30 06:17:58;;;;;;;5.03;2.72;;;;;;;;;;5030391;28;20031;-59
2022/06/30 06:20:24;;;;;;;6.40;2.67;;;;;;;;;;5022459;28;20026;-60
2022/06/30 06:22:50;;;;;;;4.50;2.92;;;;;;;;;;5030170;28;20017;-58
2022/06/30 06:25:16;;;;;;;6.07;2.85;;;;;;;;;;5028913;28;20480;-60
2022/06/30 06:29:05;;;;;;;4.50;2.75;;;;;;;;;;5026890;28;20033;-56
2022/06/30 06:30:29;;;;;;;5.28;2.58;;;;;;;;;;5027687;28;20504;-58
2022/06/30 06:32:55;;;;;;;7.38;3.03;;;;;;;;;;5030244;28;20033;-58
2022/06/30 06:35:21;;;;;;;3.95;3.25;;;;;;;;;;5028518;28;20037;-59
2022/06/30 06:37:47;;;;;;;4.75;3.28;;;;;;;;;;5030113;28;20025;-58
2022/06/30 06:40:13;;;;;;;5.72;3.28;;;;;;;;;;5011474;28;20116;-56
2022/06/30 06:42:39;;;;;;;5.72;2.45;;;;;;;;;;5026694;28;20045;-57
2022/06/30 06:45:05;;;;;;;6.53;3.30;;;;;;;;;;5029959;28;20388;-57
2022/06/30 06:47:32;;;;;;;7.93;2.78;;;;;;;;;;5030423;28;20129;-59
2022/06/30 06:49:58;;;;;;;8.10;2.75;;;;;;;;;;5028097;28;20041;-59
2022/06/30 06:52:27;;;;;;;9.48;3.00;;;;;;;;;;5029222;28;20034;-58
2022/06/30 06:54:53;;;;;;;5.18;2.97;;;;;;;;;;5029088;28;20033;-58
2022/06/30 06:57:19;;;;;;;3.85;2.88;;;;;;;;;;5029975;28;20045;-58
2022/06/30 06:59:45;;;;;;;7.55;3.28;;;;;;;;;;5029999;28;20033;-57
2022/06/30 07:02:11;;;;;;;7.30;3.03;;;;;;;;;;5018838;28;20025;-59
2022/06/30 07:04:37;;;;;;;8.73;2.97;;;;;;;;;;5037775;28;20029;-59
2022/06/30 07:07:03;;;;;;;5.72;2.55;;;;;;;;;;5039156;28;20128;-59
2022/06/30 07:09:29;;;;;;;4.57;3.03;;;;;;;;;;5031890;28;20036;-60
2022/06/30 07:11:55;;;;;;;10.18;3.60;;;;;;;;;;5032850;28;20116;-59
2022/06/30 07:14:21;;;;;;;6.25;3.42;;;;;;;;;;5033761;28;20104;-59
2022/06/30 07:16:47;;;;;;;6.18;3.20;;;;;;;;;;5034203;28;20108;-62
2022/06/30 07:19:13;;;;;;;10.30;3.55;;;;;;;;;;5030969;28;20026;-59
2022/06/30 07:21:39;;;;;;;8.93;3.50;;;;;;;;;;5031499;28;20049;-58
2022/06/30 07:24:05;;;;;;;5.28;2.90;;;;;;;;;;5033242;28;20492;-60
2022/06/30 07:26:31;;;;;;;6.05;3.63;;;;;;;;;;5031134;28;20057;-61
2022/06/30 07:28:57;;;;;;;6.30;3.03;;;;;;;;;;5032546;28;20032;-58
2022/06/30 07:31:23;;;;;;;8.98;3.00;;;;;;;;;;5032782;28;20017;-60
2022/06/30 07:33:49;;;;;;;8.25;3.47;;;;;;;;;;5030023;28;20033;-57
2022/06/30 07:36:16;;;;;;;6.40;3.33;;;;;;;;;;5032286;28;20053;-59
2022/06/30 07:38:44;;;;;;;7.00;3.42;;;;;;;;;;5031231;28;20029;-60
2022/06/30 07:41:10;;;;;;;8.23;3.47;;;;;;;;;;5033234;28;20378;-59
2022/06/30 07:43:36;;;;;;;9.52;3.42;;;;;;;;;;5033142;28;20022;-57
2022/06/30 07:46:02;;;;;;;7.80;3.53;;;;;;;;;;5014517;28;20088;-59
2022/06/30 07:48:28;;;;;;;4.63;3.00;;;;;;;;;;5032359;28;20045;-58
2022/06/30 07:50:54;;;;;;;6.35;3.08;;;;;;;;;;5031511;28;20084;-58
2022/06/30 07:53:20;;;;;;;5.93;3.20;;;;;;;;;;5031024;28;20037;-60
2022/06/30 07:55:46;;;;;;;6.88;3.10;;;;;;;;;;5032993;28;20037;-58
2022/06/30 07:58:12;;;;;;;7.85;3.55;;;;;;;;;;5030852;28;20032;-59
2022/06/30 08:00:38;;;;;;;6.97;3.70;;;;;;;;;;5031828;28;20037;-59
2022/06/30 08:03:04;;;;;;;8.00;3.50;;;;;;;;;;5032766;28;20113;-57
2022/06/30 08:05:30;;;;;;;3.95;3.00;;;;;;;;;;5018938;28;20109;-59
2022/06/30 08:07:56;;;;;;;8.38;3.30;;;;;;;;;;5027210;28;20742;-60
2022/06/30 08:10:22;;;;;;;6.43;2.95;;;;;;;;;;5031138;28;20033;-61
2022/06/30 08:12:48;;;;;;;5.45;3.70;;;;;;;;;;5036872;28;20045;-60
2022/06/30 08:15:14;;;;;;;9.30;4.10;;;;;;;;;;5030861;28;20084;-60
2022/06/30 08:17:40;;;;;;;6.35;2.80;;;;;;;;;;5014596;28;20049;-60
2022/06/30 08:20:06;;;;;;;8.73;3.80;;;;;;;;;;5030970;28;20511;-60
2022/06/30 08:22:33;;;;;;;6.25;3.45;;;;;;;;;;5027349;28;20021;-59
2022/06/30 08:24:59;;;;;;;7.32;3.97;;;;;;;;;;5010543;28;20507;-59
2022/06/30 08:27:25;;;;;;;9.90;3.72;;;;;;;;;;5031632;28;20049;-59
2022/06/30 08:29:51;;;;;;;7.47;3.55;;;;;;;;;;5031054;28;20038;-58
2022/06/30 08:32:17;;;;;;;6.57;3.45;;;;;;;;;;5031355;28;20040;-56
2022/06/30 08:34:43;;;;;;;4.22;3.25;;;;;;;;;;5031957;28;20033;-59
2022/06/30 08:37:10;;;;;;;6.28;4.07;;;;;;;;;;5045445;28;20469;-59
2022/06/30 08:42:21;;;;;;;6.90;4.05;;;;;;;;;;5028531;28;20035;-58
2022/06/30 08:45:33;;;;;;;7.53;3.60;;;;;;;;;;5030329;28;20504;-57
2022/06/30 08:47:34;;;;;;;8.02;3.83;;;;;;;;;;5019907;28;20038;-58
2022/06/30 08:50:01;;;;;;;8.70;3.83;;;;;;;;;;5030002;28;20481;-60
2022/06/30 08:52:27;;;;;;;6.90;3.55;;;;;;;;;;5029540;28;20649;-59
2022/06/30 08:54:54;;;;;;;8.38;4.00;;;;;;;;;;5029495;28;20030;-58
2022/06/30 08:57:20;;;;;;;5.00;3.47;;;;;;;;;;5030520;28;20060;-60
2022/06/30 08:59:46;;;;;;;5.70;3.55;;;;;;;;;;5031030;28;20568;-59
2022/06/30 09:02:12;;;;;;;7.93;3.85;;;;;;;;;;5029139;28;20033;-60
2022/06/30 09:04:38;;;;;;;7.15;3.30;;;;;;;;;;5031887;28;20120;-60
2022/06/30 09:07:04;;;;;;;7.03;4.30;;;;;;;;;;5029477;28;20034;-59
2022/06/30 09:09:30;;;;;;;8.15;4.57;;;;;;;;;;5030117;28;20033;-59
2022/06/30 09:11:56;;;;;;;6.18;3.85;;;;;;;;;;5030599;28;20504;-60
2022/06/30 09:14:32;;;;;;;6.57;3.65;;;;;;;;;;5029837;28;20033;-60
2022/06/30 09:16:59;;;;;;;6.30;4.20;;;;;;;;;;5019515;28;20231;-59
2022/06/30 09:19:25;;;;;;;5.90;3.90;;;;;;;;;;5029942;28;20022;-59
2022/06/30 09:22:07;;;;;;;8.30;4.05;;;;;;;;;;5022948;28;20033;-60
2022/06/30 09:24:34;;;;;;;5.70;4.05;;;;;;;;;;5030464;28;20472;-59
2022/06/30 09:27:09;;;;;;;5.78;3.75;;;;;;;;;;5027975;28;20058;-59
2022/06/30 09:29:44;;;;;;;7.47;3.97;;;;;;;;;;5027223;28;20030;-58
2022/06/30 09:32:10;;;;;;;5.53;4.03;;;;;;;;;;5029806;28;20075;-57
2022/06/30 09:34:38;;;;;;;7.40;3.70;;;;;;;;;;5028367;28;20030;-58
2022/06/30 09:37:14;;;;;;;7.10;3.20;;;;;;;;;;5030275;28;20381;-59
2022/06/30 09:39:43;;;;;;;5.40;3.80;;;;;;;;;;5030519;28;20492;-58
2022/06/30 09:42:12;;;;;;;5.30;3.38;;;;;;;;;;5031381;28;20723;-59
2022/06/30 09:44:39;;;;;;;4.72;3.00;;;;;;;;;;5028652;28;20053;-59
2022/06/30 09:47:07;;;;;;;3.83;3.17;;;;;;;;;;5025991;28;20057;-59
2022/06/30 09:49:39;;;;;;;10.48;3.58;;;;;;;;;;5025855;28;20035;-59
2022/06/30 09:52:14;;;;;;;7.47;3.63;;;;;;;;;;5028778;28;20048;-59
2022/06/30 09:54:51;;;;;;;4.32;3.50;;;;;;;;;;5030587;28;20026;-59
2022/06/30 09:57:17;;;;;;;5.35;4.18;;;;;;;;;;5028426;28;20025;-59
2022/06/30 09:59:43;;;;;;;6.47;3.65;;;;;;;;;;5030018;28;20036;-57
2022/06/30 10:02:11;;;;;;;5.47;3.22;;;;;;;;;;5029503;28;20400;-58
2022/06/30 10:04:53;;;;;;;4.18;3.38;;;;;;;;;;5039750;28;20025;-60
2022/06/30 10:07:19;;;;;;;5.05;3.53;;;;;;;;;;5038207;28;20032;-59
2022/06/30 10:09:45;;;;;;;4.90;3.25;;;;;;;;;;5034371;28;20017;-58
2022/06/30 10:12:12;;;;;;;6.55;4.00;;;;;;;;;;5030544;28;20024;-60
2022/06/30 10:14:38;;;;;;;9.20;3.97;;;;;;;;;;5028474;28;20061;-58
2022/06/30 10:17:06;;;;;;;3.65;3.28;;;;;;;;;;5030709;28;20031;-59
2022/06/30 10:19:32;;;;;;;6.95;3.70;;;;;;;;;;5030887;28;20377;-59
2022/06/30 10:21:58;;;;;;;6.97;4.20;;;;;;;;;;5029375;28;20039;-59
2022/06/30 10:24:24;;;;;;;5.45;3.30;;;;;;;;;;5030434;28;20561;-57
2022/06/30 10:29:35;;;;;;;5.15;3.38;;;;;;;;;;5025425;28;20117;-59
2022/06/30 10:32:05;;;;;;;7.47;3.70;;;;;;;;;;5028957;28;20064;-57
2022/06/30 10:34:38;;;;;;;5.07;3.58;;;;;;;;;;5030229;28;20439;-57
2022/06/30 10:37:08;;;;;;;7.97;3.28;;;;;;;;;;5030793;28;20030;-59
2022/06/30 10:39:38;;;;;;;3.78;3.15;;;;;;;;;;5029900;28;20037;-58
2022/06/30 10:42:04;;;;;;;5.45;3.22;;;;;;;;;;5022189;28;20106;-59
2022/06/30 10:44:32;;;;;;;7.07;3.03;;;;;;;;;;5030079;28;20026;-59
2022/06/30 10:46:58;;;;;;;7.18;3.22;;;;;;;;;;5029604;28;20047;-59
2022/06/30 10:49:25;;;;;;;3.55;2.70;;;;;;;;;;5034457;28;20030;-59
2022/06/30 10:51:55;;;;;;;8.63;2.90;;;;;;;;;;5033835;28;20030;-59
2022/06/30 10:54:34;;;;;;;4.85;2.83;;;;;;;;;;5034143;28;20030;-58
2022/06/30 10:57:01;;;;;;;5.28;3.05;;;;;;;;;;5034253;28;20028;-58
2022/06/30 10:59:34;;;;;;;6.03;3.22;;;;;;;;;;5034488;28;20029;-57
2022/06/30 11:02:09;;;;;;;4.28;2.70;;;;;;;;;;5032834;28;20029;-59
2022/06/30 11:04:36;;;;;;;5.88;3.08;;;;;;;;;;5032050;28;20366;-59
2022/06/30 11:07:12;;;;;;;6.53;2.90;;;;;;;;;;5034314;28;20045;-57
2022/06/30 11:09:44;;;;;;;6.28;3.03;;;;;;;;;;5038201;28;20386;-59
2022/06/30 11:12:10;;;;;;;4.15;2.58;;;;;;;;;;5032128;28;20026;-59
2022/06/30 11:14:36;;;;;;;6.80;3.45;;;;;;;;;;5033088;28;20032;-59
2022/06/30 11:17:13;;;;;;;5.45;3.22;;;;;;;;;;5031638;28;20030;-58
2022/06/30 11:19:39;;;;;;;6.60;3.33;;;;;;;;;;5033171;28;20060;-58
2022/06/30 11:22:06;;;;;;;4.47;3.20;;;;;;;;;;5032884;28;20536;-59
2022/06/30 11:24:34;;;;;;;3.63;3.00;;;;;;;;;;5031598;28;20094;-59
2022/06/30 11:27:19;;;;;;;4.25;2.90;;;;;;;;;;5031933;28;20050;-57
2022/06/30 11:29:45;;;;;;;5.70;3.08;;;;;;;;;;5036508;28;20480;-59
2022/06/30 11:32:12;;;;;;;4.43;3.00;;;;;;;;;;5032524;28;20096;-57
2022/06/30 11:34:40;;;;;;;3.60;2.67;;;;;;;;;;5029243;28;20029;-59
2022/06/30 11:37:07;;;;;;;7.03;3.30;;;;;;;;;;5033359;28;20452;-60
2022/06/30 11:39:33;;;;;;;4.05;3.03;;;;;;;;;;5014591;28;20029;-58
2022/06/30 11:42:01;;;;;;;4.32;2.90;;;;;;;;;;5032481;28;20473;-60
2022/06/30 11:44:32;;;;;;;4.07;2.90;;;;;;;;;;5031330;28;20021;-58
2022/06/30 11:47:02;;;;;;;5.05;2.95;;;;;;;;;;5023805;28;20472;-58
2022/06/30 11:49:39;;;;;;;7.15;3.08;;;;;;;;;;5030585;28;20033;-59
2022/06/30 11:52:24;;;;;;;6.03;3.38;;;;;;;;;;5023785;28;20021;-59
2022/06/30 11:54:53;;;;;;;4.82;3.03;;;;;;;;;;5031266;28;20032;-59
2022/06/30 11:57:20;;;;;;;6.30;3.30;;;;;;;;;;5029618;28;20030;-59
2022/06/30 11:59:47;;;;;;;4.00;3.38;;;;;;;;;;5026223;28;20040;-59
2022/06/30 12:02:14;;;;;;;4.32;3.10;;;;;;;;;;5030439;28;20032;-58
2022/06/30 12:04:43;;;;;;;5.72;3.25;;;;;;;;;;5027833;28;20387;-57
2022/06/30 12:07:11;;;;;;;6.07;2.95;;;;;;;;;;5032110;28;20033;-59
2022/06/30 12:09:37;;;;;;;6.38;3.30;;;;;;;;;;5034494;28;20076;-59
2022/06/30 12:12:03;;;;;;;4.97;3.22;;;;;;;;;;5031299;28;20025;-59
2022/06/30 12:14:34;;;;;;;5.07;3.15;;;;;;;;;;5035670;28;20031;-59
2022/06/30 12:17:00;;;;;;;6.05;3.38;;;;;;;;;;5032004;28;20542;-56
2022/06/30 12:19:26;;;;;;;5.88;3.15;;;;;;;;;;5031942;28;20107;-59
2022/06/30 12:21:52;;;;;;;4.57;3.08;;;;;;;;;;5030979;28;20068;-58
2022/06/30 12:24:19;;;;;;;4.55;2.88;;;;;;;;;;5031532;28;20033;-58
2022/06/30 12:26:55;;;;;;;3.90;3.00;;;;;;;;;;5009457;28;20064;-58
2022/06/30 12:29:22;;;;;;;5.55;2.90;;;;;;;;;;5004181;28;20033;-59
2022/06/30 12:32:01;;;;;;;4.72;2.75;;;;;;;;;;5005348;28;20038;-59
2022/06/30 12:34:28;;;;;;;8.13;3.38;;;;;;;;;;5015039;28;20052;-59
2022/06/30 12:37:01;;;;;;;4.47;3.17;;;;;;;;;;5023689;28;20084;-57
2022/06/30 12:39:27;;;;;;;;;;;;;;;;;;5010318;28;20122;-58
2022/06/30 12:42:06;;;;;;;7.38;4.05;;;;;;;;;;5011840;28;20048;-57
2022/06/30 12:44:34;;;;;;;5.97;3.38;;;;;;;;;;5012149;28;20477;-60
2022/06/30 12:47:04;;;;;;;5.50;3.13;;;;;;;;;;5013910;28;21335;-57
2022/06/30 12:49:30;;;;;;;5.00;3.47;;;;;;;;;;5005197;28;20165;-59
2022/06/30 12:51:56;;;;;;;5.60;3.92;;;;;;;;;;4999772;28;21214;-57
2022/06/30 12:54:23;;;;;;;5.25;3.63;;;;;;;;;;5001949;28;20026;-59
2022/06/30 12:56:52;;;;;;;7.45;3.65;;;;;;;;;;5002251;28;20423;-59
2022/06/30 12:59:20;;;;;;;4.53;3.67;;;;;;;;;;5003697;28;20129;-58
2022/06/30 13:01:48;;;;;;;5.38;3.85;;;;;;;;;;5004185;28;20490;-59
2022/06/30 13:04:16;;;;;;;5.00;3.33;;;;;;;;;;5004314;28;20037;-58
2022/06/30 13:06:43;;;;;;;8.38;4.97;;;;;;;;;;5000826;28;20040;-58
2022/06/30 13:09:10;;;;;;;10.27;3.80;;;;;;;;;;5000382;28;20030;-58
2022/06/30 13:11:37;;;;;;;5.70;3.50;;;;;;;;;;4999402;28;20037;-58
2022/06/30 13:14:03;;;;;;;4.45;3.60;;;;;;;;;;5003409;28;20077;-57
2022/06/30 13:16:31;;;;;;;8.38;3.88;;;;;;;;;;5001553;28;20098;-58
2022/06/30 13:18:58;;;;;;;5.50;3.40;;;;;;;;;;5001858;28;20097;-57
2022/06/30 13:21:25;;;;;;;9.05;3.83;;;;;;;;;;5005284;28;20044;-57
2022/06/30 13:23:50;;;;;;;6.97;4.00;;;;;;;;;;5003871;28;20034;-58
2022/06/30 13:26:16;;;;;;;5.13;4.00;;;;;;;;;;5011998;28;20404;-59
2022/06/30 13:28:42;;;;;;;6.63;3.88;;;;;;;;;;5026694;28;20030;-59
2022/06/30 13:31:08;;;;;;;4.93;3.10;;;;;;;;;;5027086;28;20061;-59
2022/06/30 13:33:36;;;;;;;5.35;4.30;;;;;;;;;;5030471;28;20053;-58
2022/06/30 13:36:03;;;;;;;9.35;4.10;;;;;;;;;;5032508;28;20489;-59
2022/06/30 13:38:29;;;;;;;5.28;3.58;;;;;;;;;;5012226;28;20021;-58
2022/06/30 13:40:55;;;;;;;8.68;4.25;;;;;;;;;;5014033;28;20022;-59
2022/06/30 13:43:21;;;;;;;8.00;4.50;;;;;;;;;;5029083;28;20021;-59
2022/06/30 13:45:47;;;;;;;4.40;3.50;;;;;;;;;;5025265;28;20029;-57
2022/06/30 13:48:13;;;;;;;3.78;3.30;;;;;;;;;;5029972;28;20029;-58
2022/06/30 13:50:39;;;;;;;7.75;4.10;;;;;;;;;;5029511;28;20475;-59
2022/06/30 13:53:05;;;;;;;4.88;3.35;;;;;;;;;;5026745;28;20025;-59
2022/06/30 13:55:32;;;;;;;7.07;3.72;;;;;;;;;;5017495;28;20026;-59
2022/06/30 13:57:58;;;;;;;5.88;3.85;;;;;;;;;;5020864;28;20033;-58
2022/06/30 14:00:24;;;;;;;5.45;3.50;;;;;;;;;;5020260;28;20025;-59
2022/06/30 14:02:50;;;;;;;6.25;3.80;;;;;;;;;;5007267;28;20021;-60
2022/06/30 14:05:16;;;;;;;6.47;3.97;;;;;;;;;;5029779;28;20036;-60
2022/06/30 14:07:42;;;;;;;8.35;4.22;;;;;;;;;;5029243;28;20029;-58
2022/06/30 14:10:08;;;;;;;6.07;3.65;;;;;;;;;;5023010;28;20509;-57
2022/06/30 14:12:35;;;;;;;5.72;4.38;;;;;;;;;;5029403;28;20025;-59
2022/06/30 14:15:01;;;;;;;5.13;4.00;;;;;;;;;;5029160;28;20540;-58
2022/06/30 14:17:27;;;;;;;7.93;4.65;;;;;;;;;;5031720;28;20032;-59
2022/06/30 14:19:53;;;;;;;6.65;4.28;;;;;;;;;;5037076;28;20029;-59
2022/06/30 14:22:19;;;;;;;9.23;4.05;;;;;;;;;;5037754;28;20057;-58
2022/06/30 14:24:45;;;;;;;7.78;4.10;;;;;;;;;;5037263;28;20053;-58
2022/06/30 14:27:11;;;;;;;8.07;3.95;;;;;;;;;;5037123;28;20184;-59
2022/06/30 14:29:37;;;;;;;5.75;3.70;;;;;;;;;;5045538;28;20036;-58
2022/06/30 14:32:04;;;;;;;8.32;3.78;;;;;;;;;;5035712;28;20029;-58
2022/06/30 14:34:30;;;;;;;5.22;3.72;;;;;;;;;;5037076;28;20544;-58
2022/06/30 14:36:56;;;;;;;4.55;3.45;;;;;;;;;;5036343;28;20042;-58
2022/06/30 14:39:22;;;;;;;4.65;3.28;;;;;;;;;;5035738;28;20026;-59
2022/06/30 14:44:34;;;;;;;6.10;3.10;;;;;;;;;;5036697;28;20032;-59
2022/06/30 14:47:01;;;;;;;4.82;3.20;;;;;;;;;;5036791;28;20567;-58
2022/06/30 14:49:27;;;;;;;4.50;2.95;;;;;;;;;;5035835;28;20025;-59
2022/06/30 14:51:53;;;;;;;9.85;2.80;;;;;;;;;;5030315;28;20473;-59
2022/06/30 14:54:19;;;;;;;5.45;3.15;;;;;;;;;;5031735;28;20037;-57
2022/06/30 14:56:45;;;;;;;6.32;2.83;;;;;;;;;;5036285;28;20064;-59
2022/06/30 14:59:11;;;;;;;3.97;2.70;;;;;;;;;;5036876;28;20138;-58